sensor_id;sensor_type;location;lat;lon;timestamp;P1;durP1;ratioP1;P2;durP2;ratioP2
74510;SDS011;62991;50.040;18.400;2022-11-04T00:02:03;69.18;;;30.02;;
74510;SDS011;62991;50.040;18.400;2022-11-04T00:09:01;15.18;;;6.07;;
74510;SDS011;62991;50.040;18.400;2022-11-04T00:12:03;21.27;;;9.05;;
74510;SDS011;62991;50.040;18.400;2022-11-04T00:15:22;11.80;;;5.63;;
74510;SDS011;62991;50.040;18.400;2022-11-04T00:18:42;16.83;;;5.85;;
74510;SDS011;62991;50.040;18.400;2022-11-04T00:21:42;12.98;;;5.10;;
74510;SDS011;62991;50.040;18.400;2022-11-04T00:25:02;18.85;;;6.10;;
74510;SDS011;62991;50.040;18.400;2022-11-04T00:28:22;11.65;;;4.95;;
74510;SDS011;62991;50.040;18.400;2022-11-04T00:31:41;13.27;;;5.53;;
74510;SDS011;62991;50.040;18.400;2022-11-04T00:35:00;10.23;;;4.80;;
74510;SDS011;62991;50.040;18.400;2022-11-04T00:38:01;8.18;;;4.30;;
74510;SDS011;62991;50.040;18.400;2022-11-04T00:41:02;14.02;;;5.22;;
74510;SDS011;62991;50.040;18.400;2022-11-04T00:44:03;9.63;;;3.80;;
74510;SDS011;62991;50.040;18.400;2022-11-04T00:47:04;13.55;;;5.03;;
74510;SDS011;62991;50.040;18.400;2022-11-04T00:50:05;13.85;;;4.97;;
74510;SDS011;62991;50.040;18.400;2022-11-04T00:53:06;12.65;;;4.65;;
74510;SDS011;62991;50.040;18.400;2022-11-04T00:56:07;13.95;;;4.75;;
74510;SDS011;62991;50.040;18.400;2022-11-04T00:59:08;12.93;;;4.70;;
74510;SDS011;62991;50.040;18.400;2022-11-04T01:02:09;9.40;;;3.42;;
74510;SDS011;62991;50.040;18.400;2022-11-04T01:05:10;8.82;;;3.55;;
74510;SDS011;62991;50.040;18.400;2022-11-04T01:08:11;10.80;;;3.85;;
74510;SDS011;62991;50.040;18.400;2022-11-04T01:11:12;9.23;;;3.55;;
74510;SDS011;62991;50.040;18.400;2022-11-04T01:14:13;9.65;;;3.75;;
74510;SDS011;62991;50.040;18.400;2022-11-04T01:17:14;19.67;;;4.18;;
74510;SDS011;62991;50.040;18.400;2022-11-04T01:20:16;10.02;;;3.97;;
74510;SDS011;62991;50.040;18.400;2022-11-04T01:23:16;11.02;;;3.60;;
74510;SDS011;62991;50.040;18.400;2022-11-04T01:26:18;10.10;;;3.10;;
74510;SDS011;62991;50.040;18.400;2022-11-04T01:29:20;7.75;;;3.13;;
74510;SDS011;62991;50.040;18.400;2022-11-04T01:32:21;11.10;;;3.40;;
74510;SDS011;62991;50.040;18.400;2022-11-04T01:35:22;7.63;;;2.80;;
74510;SDS011;62991;50.040;18.400;2022-11-04T01:38:22;11.10;;;4.38;;
74510;SDS011;62991;50.040;18.400;2022-11-04T01:41:24;11.07;;;3.50;;
74510;SDS011;62991;50.040;18.400;2022-11-04T01:47:42;15.35;;;4.63;;
74510;SDS011;62991;50.040;18.400;2022-11-04T01:50:47;11.15;;;4.22;;
74510;SDS011;62991;50.040;18.400;2022-11-04T01:53:51;15.48;;;4.93;;
74510;SDS011;62991;50.040;18.400;2022-11-04T01:56:54;11.38;;;4.20;;
74510;SDS011;62991;50.040;18.400;2022-11-04T01:59:56;12.20;;;5.20;;
74510;SDS011;62991;50.040;18.400;2022-11-04T02:03:03;11.00;;;3.83;;
74510;SDS011;62991;50.040;18.400;2022-11-04T02:06:08;10.38;;;3.92;;
74510;SDS011;62991;50.040;18.400;2022-11-04T02:09:10;9.75;;;3.20;;
74510;SDS011;62991;50.040;18.400;2022-11-04T02:12:11;7.82;;;3.17;;
74510;SDS011;62991;50.040;18.400;2022-11-04T02:15:36;7.10;;;3.20;;
74510;SDS011;62991;50.040;18.400;2022-11-04T02:41:41;6.57;;;3.03;;
74510;SDS011;62991;50.040;18.400;2022-11-04T02:45:13;4.22;;;2.28;;
74510;SDS011;62991;50.040;18.400;2022-11-04T02:51:40;6.18;;;2.63;;
74510;SDS011;62991;50.040;18.400;2022-11-04T02:55:05;5.63;;;2.75;;
74510;SDS011;62991;50.040;18.400;2022-11-04T02:58:15;7.53;;;2.75;;
74510;SDS011;62991;50.040;18.400;2022-11-04T03:01:21;7.90;;;2.92;;
74510;SDS011;62991;50.040;18.400;2022-11-04T03:04:27;9.20;;;2.47;;
74510;SDS011;62991;50.040;18.400;2022-11-04T03:07:32;6.68;;;2.58;;
74510;SDS011;62991;50.040;18.400;2022-11-04T03:10:36;6.15;;;2.58;;
74510;SDS011;62991;50.040;18.400;2022-11-04T03:13:43;6.50;;;2.55;;
74510;SDS011;62991;50.040;18.400;2022-11-04T03:16:56;5.70;;;2.53;;
74510;SDS011;62991;50.040;18.400;2022-11-04T03:20:00;6.13;;;2.88;;
74510;SDS011;62991;50.040;18.400;2022-11-04T03:23:04;7.47;;;2.88;;
74510;SDS011;62991;50.040;18.400;2022-11-04T03:29:32;7.57;;;2.95;;
74510;SDS011;62991;50.040;18.400;2022-11-04T03:35:42;6.32;;;2.78;;
74510;SDS011;62991;50.040;18.400;2022-11-04T03:38:43;6.72;;;2.90;;
74510;SDS011;62991;50.040;18.400;2022-11-04T03:41:48;10.50;;;2.75;;
74510;SDS011;62991;50.040;18.400;2022-11-04T03:44:54;15.75;;;3.50;;
74510;SDS011;62991;50.040;18.400;2022-11-04T03:47:55;6.65;;;2.60;;
74510;SDS011;62991;50.040;18.400;2022-11-04T03:50:57;6.78;;;2.35;;
74510;SDS011;62991;50.040;18.400;2022-11-04T03:53:58;7.50;;;2.88;;
74510;SDS011;62991;50.040;18.400;2022-11-04T04:00:11;5.30;;;2.25;;
74510;SDS011;62991;50.040;18.400;2022-11-04T04:03:16;6.40;;;2.80;;
74510;SDS011;62991;50.040;18.400;2022-11-04T04:06:26;7.78;;;2.63;;
74510;SDS011;62991;50.040;18.400;2022-11-04T04:09:38;11.57;;;3.88;;
74510;SDS011;62991;50.040;18.400;2022-11-04T04:13:21;10.50;;;3.20;;
74510;SDS011;62991;50.040;18.400;2022-11-04T04:16:28;5.22;;;2.58;;
74510;SDS011;62991;50.040;18.400;2022-11-04T04:19:36;4.95;;;2.30;;
74510;SDS011;62991;50.040;18.400;2022-11-04T04:22:44;6.45;;;2.83;;
74510;SDS011;62991;50.040;18.400;2022-11-04T04:25:51;5.68;;;2.35;;
74510;SDS011;62991;50.040;18.400;2022-11-04T04:29:12;8.75;;;3.33;;
74510;SDS011;62991;50.040;18.400;2022-11-04T04:32:14;8.18;;;2.75;;
74510;SDS011;62991;50.040;18.400;2022-11-04T04:35:16;7.18;;;2.65;;
74510;SDS011;62991;50.040;18.400;2022-11-04T04:38:41;7.78;;;2.67;;
74510;SDS011;62991;50.040;18.400;2022-11-04T04:42:02;8.35;;;3.10;;
74510;SDS011;62991;50.040;18.400;2022-11-04T04:45:22;6.22;;;3.15;;
74510;SDS011;62991;50.040;18.400;2022-11-04T04:48:29;7.82;;;2.70;;
74510;SDS011;62991;50.040;18.400;2022-11-04T04:51:30;6.57;;;2.97;;
74510;SDS011;62991;50.040;18.400;2022-11-04T04:54:31;11.48;;;4.75;;
74510;SDS011;62991;50.040;18.400;2022-11-04T04:57:32;15.82;;;7.68;;
74510;SDS011;62991;50.040;18.400;2022-11-04T05:00:33;16.83;;;5.97;;
74510;SDS011;62991;50.040;18.400;2022-11-04T05:03:34;11.95;;;4.63;;
74510;SDS011;62991;50.040;18.400;2022-11-04T05:06:34;10.98;;;4.10;;
74510;SDS011;62991;50.040;18.400;2022-11-04T05:09:35;7.10;;;2.92;;
74510;SDS011;62991;50.040;18.400;2022-11-04T05:12:36;8.65;;;3.58;;
74510;SDS011;62991;50.040;18.400;2022-11-04T05:16:07;9.10;;;3.63;;
74510;SDS011;62991;50.040;18.400;2022-11-04T05:19:09;8.68;;;3.70;;
74510;SDS011;62991;50.040;18.400;2022-11-04T05:22:09;9.57;;;3.55;;
74510;SDS011;62991;50.040;18.400;2022-11-04T05:25:10;9.85;;;4.50;;
74510;SDS011;62991;50.040;18.400;2022-11-04T05:28:11;9.23;;;3.70;;
74510;SDS011;62991;50.040;18.400;2022-11-04T05:31:12;10.98;;;3.95;;
74510;SDS011;62991;50.040;18.400;2022-11-04T05:34:12;11.70;;;4.50;;
74510;SDS011;62991;50.040;18.400;2022-11-04T05:37:13;15.45;;;4.55;;
74510;SDS011;62991;50.040;18.400;2022-11-04T05:40:14;13.23;;;5.82;;
74510;SDS011;62991;50.040;18.400;2022-11-04T05:43:15;24.98;;;9.88;;
74510;SDS011;62991;50.040;18.400;2022-11-04T05:46:15;19.23;;;6.75;;
74510;SDS011;62991;50.040;18.400;2022-11-04T05:49:16;13.77;;;6.20;;
74510;SDS011;62991;50.040;18.400;2022-11-04T05:52:17;16.73;;;6.30;;
74510;SDS011;62991;50.040;18.400;2022-11-04T05:55:17;14.05;;;6.93;;
74510;SDS011;62991;50.040;18.400;2022-11-04T05:58:18;14.48;;;6.70;;
74510;SDS011;62991;50.040;18.400;2022-11-04T06:01:32;10.23;;;5.13;;
74510;SDS011;62991;50.040;18.400;2022-11-04T06:04:35;12.63;;;6.22;;
74510;SDS011;62991;50.040;18.400;2022-11-04T06:07:36;22.52;;;8.27;;
74510;SDS011;62991;50.040;18.400;2022-11-04T06:10:36;20.98;;;8.18;;
74510;SDS011;62991;50.040;18.400;2022-11-04T06:13:37;20.50;;;8.45;;
74510;SDS011;62991;50.040;18.400;2022-11-04T06:16:38;11.50;;;4.63;;
74510;SDS011;62991;50.040;18.400;2022-11-04T06:19:39;19.13;;;9.05;;
74510;SDS011;62991;50.040;18.400;2022-11-04T06:22:39;29.67;;;12.00;;
74510;SDS011;62991;50.040;18.400;2022-11-04T06:25:40;18.40;;;7.10;;
74510;SDS011;62991;50.040;18.400;2022-11-04T06:28:40;31.02;;;12.25;;
74510;SDS011;62991;50.040;18.400;2022-11-04T06:31:41;34.22;;;14.40;;
74510;SDS011;62991;50.040;18.400;2022-11-04T06:34:42;28.85;;;9.70;;
74510;SDS011;62991;50.040;18.400;2022-11-04T06:37:43;25.88;;;10.52;;
74510;SDS011;62991;50.040;18.400;2022-11-04T06:40:44;26.92;;;11.35;;
74510;SDS011;62991;50.040;18.400;2022-11-04T06:43:44;25.83;;;10.18;;
74510;SDS011;62991;50.040;18.400;2022-11-04T06:46:45;33.92;;;10.20;;
74510;SDS011;62991;50.040;18.400;2022-11-04T06:49:46;41.67;;;15.57;;
74510;SDS011;62991;50.040;18.400;2022-11-04T06:52:46;22.98;;;8.60;;
74510;SDS011;62991;50.040;18.400;2022-11-04T06:55:47;31.88;;;12.32;;
74510;SDS011;62991;50.040;18.400;2022-11-04T06:58:51;18.27;;;9.05;;
74510;SDS011;62991;50.040;18.400;2022-11-04T07:01:53;23.10;;;8.38;;
74510;SDS011;62991;50.040;18.400;2022-11-04T07:04:54;17.02;;;6.75;;
74510;SDS011;62991;50.040;18.400;2022-11-04T07:07:54;21.95;;;9.18;;
74510;SDS011;62991;50.040;18.400;2022-11-04T07:10:55;24.75;;;9.65;;
74510;SDS011;62991;50.040;18.400;2022-11-04T07:13:56;30.70;;;10.98;;
74510;SDS011;62991;50.040;18.400;2022-11-04T07:16:57;21.67;;;9.00;;
74510;SDS011;62991;50.040;18.400;2022-11-04T07:19:58;14.95;;;6.13;;
74510;SDS011;62991;50.040;18.400;2022-11-04T07:22:59;38.63;;;16.38;;
74510;SDS011;62991;50.040;18.400;2022-11-04T07:26:00;40.00;;;15.60;;
74510;SDS011;62991;50.040;18.400;2022-11-04T07:29:02;28.20;;;11.80;;
74510;SDS011;62991;50.040;18.400;2022-11-04T07:32:04;22.08;;;9.10;;
74510;SDS011;62991;50.040;18.400;2022-11-04T07:35:05;46.30;;;18.63;;
74510;SDS011;62991;50.040;18.400;2022-11-04T07:38:06;53.35;;;21.42;;
74510;SDS011;62991;50.040;18.400;2022-11-04T07:41:07;36.78;;;15.25;;
74510;SDS011;62991;50.040;18.400;2022-11-04T07:44:11;23.63;;;9.43;;
74510;SDS011;62991;50.040;18.400;2022-11-04T07:47:12;50.08;;;18.20;;
74510;SDS011;62991;50.040;18.400;2022-11-04T07:50:13;44.53;;;14.38;;
74510;SDS011;62991;50.040;18.400;2022-11-04T07:53:14;109.60;;;26.77;;
74510;SDS011;62991;50.040;18.400;2022-11-04T07:56:14;72.53;;;19.58;;
74510;SDS011;62991;50.040;18.400;2022-11-04T07:59:15;56.45;;;17.08;;
74510;SDS011;62991;50.040;18.400;2022-11-04T08:02:16;37.70;;;13.05;;
74510;SDS011;62991;50.040;18.400;2022-11-04T08:05:17;29.98;;;12.15;;
74510;SDS011;62991;50.040;18.400;2022-11-04T08:08:18;15.07;;;6.75;;
74510;SDS011;62991;50.040;18.400;2022-11-04T08:11:19;17.77;;;4.85;;
74510;SDS011;62991;50.040;18.400;2022-11-04T08:14:24;13.70;;;5.38;;
74510;SDS011;62991;50.040;18.400;2022-11-04T08:17:24;18.15;;;7.05;;
74510;SDS011;62991;50.040;18.400;2022-11-04T08:20:25;17.77;;;6.93;;
74510;SDS011;62991;50.040;18.400;2022-11-04T08:23:26;22.73;;;7.72;;
74510;SDS011;62991;50.040;18.400;2022-11-04T08:26:27;27.52;;;11.20;;
74510;SDS011;62991;50.040;18.400;2022-11-04T08:29:28;51.95;;;18.15;;
74510;SDS011;62991;50.040;18.400;2022-11-04T08:32:29;79.32;;;21.42;;
74510;SDS011;62991;50.040;18.400;2022-11-04T08:35:30;64.80;;;20.55;;
74510;SDS011;62991;50.040;18.400;2022-11-04T08:38:31;51.20;;;17.05;;
74510;SDS011;62991;50.040;18.400;2022-11-04T08:41:33;43.08;;;13.38;;
74510;SDS011;62991;50.040;18.400;2022-11-04T08:44:36;49.28;;;18.42;;
74510;SDS011;62991;50.040;18.400;2022-11-04T08:47:38;53.50;;;19.88;;
74510;SDS011;62991;50.040;18.400;2022-11-04T08:50:39;42.25;;;16.15;;
74510;SDS011;62991;50.040;18.400;2022-11-04T08:53:40;31.60;;;11.38;;
74510;SDS011;62991;50.040;18.400;2022-11-04T08:56:41;33.33;;;12.43;;
74510;SDS011;62991;50.040;18.400;2022-11-04T08:59:42;20.42;;;8.27;;
74510;SDS011;62991;50.040;18.400;2022-11-04T09:02:43;32.92;;;12.43;;
74510;SDS011;62991;50.040;18.400;2022-11-04T09:05:44;18.30;;;7.03;;
74510;SDS011;62991;50.040;18.400;2022-11-04T09:08:48;11.10;;;4.75;;
74510;SDS011;62991;50.040;18.400;2022-11-04T09:11:49;11.30;;;5.40;;
74510;SDS011;62991;50.040;18.400;2022-11-04T09:14:50;11.98;;;5.20;;
74510;SDS011;62991;50.040;18.400;2022-11-04T09:17:51;28.10;;;9.23;;
74510;SDS011;62991;50.040;18.400;2022-11-04T09:20:52;27.17;;;9.95;;
74510;SDS011;62991;50.040;18.400;2022-11-04T09:23:53;22.35;;;11.18;;
74510;SDS011;62991;50.040;18.400;2022-11-04T09:26:54;45.72;;;18.08;;
74510;SDS011;62991;50.040;18.400;2022-11-04T09:29:55;38.95;;;15.38;;
74510;SDS011;62991;50.040;18.400;2022-11-04T09:32:56;20.90;;;7.97;;
74510;SDS011;62991;50.040;18.400;2022-11-04T09:35:57;16.17;;;7.47;;
74510;SDS011;62991;50.040;18.400;2022-11-04T09:38:58;18.40;;;7.63;;
74510;SDS011;62991;50.040;18.400;2022-11-04T09:45:12;30.85;;;11.45;;
74510;SDS011;62991;50.040;18.400;2022-11-04T09:48:20;23.15;;;8.60;;
74510;SDS011;62991;50.040;18.400;2022-11-04T09:51:27;24.77;;;9.57;;
74510;SDS011;62991;50.040;18.400;2022-11-04T09:57:34;21.95;;;8.27;;
74510;SDS011;62991;50.040;18.400;2022-11-04T10:00:35;17.05;;;7.82;;
74510;SDS011;62991;50.040;18.400;2022-11-04T10:03:45;20.63;;;9.25;;
74510;SDS011;62991;50.040;18.400;2022-11-04T10:06:57;21.90;;;8.38;;
74510;SDS011;62991;50.040;18.400;2022-11-04T10:10:26;19.48;;;7.88;;
74510;SDS011;62991;50.040;18.400;2022-11-04T10:24:19;19.15;;;7.75;;
74510;SDS011;62991;50.040;18.400;2022-11-04T10:27:18;55.63;;;16.80;;
74510;SDS011;62991;50.040;18.400;2022-11-04T10:30:24;53.70;;;16.83;;
74510;SDS011;62991;50.040;18.400;2022-11-04T10:33:31;26.20;;;9.95;;
74510;SDS011;62991;50.040;18.400;2022-11-04T10:36:43;20.48;;;7.40;;
74510;SDS011;62991;50.040;18.400;2022-11-04T10:39:47;19.70;;;6.45;;
74510;SDS011;62991;50.040;18.400;2022-11-04T10:42:49;20.92;;;6.90;;
74510;SDS011;62991;50.040;18.400;2022-11-04T10:45:54;14.05;;;5.80;;
74510;SDS011;62991;50.040;18.400;2022-11-04T10:49:13;15.30;;;6.30;;
74510;SDS011;62991;50.040;18.400;2022-11-04T10:52:38;16.15;;;6.65;;
74510;SDS011;62991;50.040;18.400;2022-11-04T10:58:53;15.85;;;6.88;;
74510;SDS011;62991;50.040;18.400;2022-11-04T11:01:55;21.50;;;7.00;;
74510;SDS011;62991;50.040;18.400;2022-11-04T11:05:22;15.80;;;5.72;;
74510;SDS011;62991;50.040;18.400;2022-11-04T11:08:30;10.85;;;5.50;;
74510;SDS011;62991;50.040;18.400;2022-11-04T11:11:38;20.38;;;8.10;;
74510;SDS011;62991;50.040;18.400;2022-11-04T11:14:46;18.42;;;7.20;;
74510;SDS011;62991;50.040;18.400;2022-11-04T11:17:47;16.88;;;6.25;;
74510;SDS011;62991;50.040;18.400;2022-11-04T11:20:50;15.48;;;6.60;;
74510;SDS011;62991;50.040;18.400;2022-11-04T11:24:12;15.20;;;6.38;;
74510;SDS011;62991;50.040;18.400;2022-11-04T11:27:34;23.35;;;8.45;;
74510;SDS011;62991;50.040;18.400;2022-11-04T11:36:57;29.60;;;10.65;;
74510;SDS011;62991;50.040;18.400;2022-11-04T11:40:02;25.17;;;9.93;;
74510;SDS011;62991;50.040;18.400;2022-11-04T11:43:03;17.15;;;6.90;;
74510;SDS011;62991;50.040;18.400;2022-11-04T11:46:04;22.17;;;8.00;;
74510;SDS011;62991;50.040;18.400;2022-11-04T11:49:10;21.75;;;6.53;;
74510;SDS011;62991;50.040;18.400;2022-11-04T11:52:31;20.85;;;7.57;;
74510;SDS011;62991;50.040;18.400;2022-11-04T11:55:35;16.58;;;6.80;;
74510;SDS011;62991;50.040;18.400;2022-11-04T12:05:10;48.67;;;14.30;;
74510;SDS011;62991;50.040;18.400;2022-11-04T12:18:07;12.85;;;5.93;;
74510;SDS011;62991;50.040;18.400;2022-11-04T12:21:25;27.35;;;9.05;;
74510;SDS011;62991;50.040;18.400;2022-11-04T12:31:48;23.48;;;8.43;;
74510;SDS011;62991;50.040;18.400;2022-11-04T12:35:00;28.02;;;8.85;;
74510;SDS011;62991;50.040;18.400;2022-11-04T12:38:16;27.92;;;10.52;;
74510;SDS011;62991;50.040;18.400;2022-11-04T12:41:41;18.83;;;7.95;;
74510;SDS011;62991;50.040;18.400;2022-11-04T12:58:22;20.05;;;8.32;;
74510;SDS011;62991;50.040;18.400;2022-11-04T13:01:34;23.15;;;8.43;;
74510;SDS011;62991;50.040;18.400;2022-11-04T13:04:42;20.92;;;8.73;;
74510;SDS011;62991;50.040;18.400;2022-11-04T13:11:33;30.75;;;10.75;;
74510;SDS011;62991;50.040;18.400;2022-11-04T13:17:53;23.65;;;9.52;;
74510;SDS011;62991;50.040;18.400;2022-11-04T13:21:21;35.88;;;14.45;;
74510;SDS011;62991;50.040;18.400;2022-11-04T13:24:28;25.58;;;10.30;;
74510;SDS011;62991;50.040;18.400;2022-11-04T13:27:33;26.70;;;11.48;;
74510;SDS011;62991;50.040;18.400;2022-11-04T13:37:39;59.45;;;20.42;;
74510;SDS011;62991;50.040;18.400;2022-11-04T13:44:30;44.28;;;17.00;;
74510;SDS011;62991;50.040;18.400;2022-11-04T13:47:43;61.38;;;21.20;;
74510;SDS011;62991;50.040;18.400;2022-11-04T13:53:56;55.28;;;17.77;;
74510;SDS011;62991;50.040;18.400;2022-11-04T14:10:35;52.50;;;18.90;;
74510;SDS011;62991;50.040;18.400;2022-11-04T14:13:43;53.80;;;21.27;;
74510;SDS011;62991;50.040;18.400;2022-11-04T14:16:44;44.47;;;18.10;;
74510;SDS011;62991;50.040;18.400;2022-11-04T14:22:55;50.45;;;19.33;;
74510;SDS011;62991;50.040;18.400;2022-11-04T14:26:02;42.22;;;16.63;;
74510;SDS011;62991;50.040;18.400;2022-11-04T14:29:06;51.60;;;19.10;;
74510;SDS011;62991;50.040;18.400;2022-11-04T14:32:09;55.80;;;21.60;;
74510;SDS011;62991;50.040;18.400;2022-11-04T14:35:15;46.75;;;18.73;;
74510;SDS011;62991;50.040;18.400;2022-11-04T14:38:27;45.65;;;17.25;;
74510;SDS011;62991;50.040;18.400;2022-11-04T14:41:31;51.95;;;19.70;;
74510;SDS011;62991;50.040;18.400;2022-11-04T14:44:50;44.80;;;16.48;;
74510;SDS011;62991;50.040;18.400;2022-11-04T14:47:53;66.47;;;20.70;;
74510;SDS011;62991;50.040;18.400;2022-11-04T14:50:56;64.50;;;20.50;;
74510;SDS011;62991;50.040;18.400;2022-11-04T14:57:16;51.72;;;16.67;;
74510;SDS011;62991;50.040;18.400;2022-11-04T15:03:34;34.55;;;13.13;;
74510;SDS011;62991;50.040;18.400;2022-11-04T15:06:37;36.95;;;13.80;;
74510;SDS011;62991;50.040;18.400;2022-11-04T15:09:45;33.97;;;12.85;;
74510;SDS011;62991;50.040;18.400;2022-11-04T15:12:48;37.35;;;13.55;;
74510;SDS011;62991;50.040;18.400;2022-11-04T15:15:54;52.22;;;18.60;;
74510;SDS011;62991;50.040;18.400;2022-11-04T15:18:57;47.88;;;18.10;;
74510;SDS011;62991;50.040;18.400;2022-11-04T15:21:59;48.15;;;17.88;;
74510;SDS011;62991;50.040;18.400;2022-11-04T15:25:02;59.72;;;20.75;;
74510;SDS011;62991;50.040;18.400;2022-11-04T15:28:10;50.95;;;19.02;;
74510;SDS011;62991;50.040;18.400;2022-11-04T15:31:17;49.33;;;18.40;;
74510;SDS011;62991;50.040;18.400;2022-11-04T15:34:24;57.92;;;22.83;;
74510;SDS011;62991;50.040;18.400;2022-11-04T15:37:26;69.85;;;25.35;;
74510;SDS011;62991;50.040;18.400;2022-11-04T15:40:29;77.45;;;28.02;;
74510;SDS011;62991;50.040;18.400;2022-11-04T15:43:34;76.03;;;27.63;;
74510;SDS011;62991;50.040;18.400;2022-11-04T15:46:34;73.25;;;28.17;;
74510;SDS011;62991;50.040;18.400;2022-11-04T15:49:36;66.13;;;25.63;;
74510;SDS011;62991;50.040;18.400;2022-11-04T15:52:36;51.40;;;20.77;;
74510;SDS011;62991;50.040;18.400;2022-11-04T15:55:37;60.15;;;20.85;;
74510;SDS011;62991;50.040;18.400;2022-11-04T15:58:40;43.65;;;17.65;;
74510;SDS011;62991;50.040;18.400;2022-11-04T16:01:43;44.60;;;16.60;;
74510;SDS011;62991;50.040;18.400;2022-11-04T16:04:54;44.67;;;18.23;;
74510;SDS011;62991;50.040;18.400;2022-11-04T16:08:21;41.95;;;16.23;;
74510;SDS011;62991;50.040;18.400;2022-11-04T16:11:22;50.60;;;20.05;;
74510;SDS011;62991;50.040;18.400;2022-11-04T16:14:24;42.10;;;15.52;;
74510;SDS011;62991;50.040;18.400;2022-11-04T16:17:28;35.67;;;13.70;;
74510;SDS011;62991;50.040;18.400;2022-11-04T16:20:30;43.05;;;17.00;;
74510;SDS011;62991;50.040;18.400;2022-11-04T16:23:37;50.25;;;19.20;;
74510;SDS011;62991;50.040;18.400;2022-11-04T16:33:08;38.78;;;15.13;;
74510;SDS011;62991;50.040;18.400;2022-11-04T16:36:11;40.90;;;14.43;;
74510;SDS011;62991;50.040;18.400;2022-11-04T16:39:16;39.90;;;16.40;;
74510;SDS011;62991;50.040;18.400;2022-11-04T16:42:17;36.55;;;14.77;;
74510;SDS011;62991;50.040;18.400;2022-11-04T16:48:32;39.92;;;13.75;;
74510;SDS011;62991;50.040;18.400;2022-11-04T16:51:33;30.45;;;12.73;;
74510;SDS011;62991;50.040;18.400;2022-11-04T16:54:33;27.75;;;11.35;;
74510;SDS011;62991;50.040;18.400;2022-11-04T16:57:34;34.20;;;12.02;;
74510;SDS011;62991;50.040;18.400;2022-11-04T17:00:35;34.53;;;11.77;;
74510;SDS011;62991;50.040;18.400;2022-11-04T17:03:35;25.40;;;11.88;;
74510;SDS011;62991;50.040;18.400;2022-11-04T17:06:36;31.13;;;13.32;;
74510;SDS011;62991;50.040;18.400;2022-11-04T17:09:37;36.97;;;14.00;;
74510;SDS011;62991;50.040;18.400;2022-11-04T17:12:38;27.73;;;11.95;;
74510;SDS011;62991;50.040;18.400;2022-11-04T17:15:39;30.40;;;12.80;;
74510;SDS011;62991;50.040;18.400;2022-11-04T17:18:40;49.45;;;17.05;;
74510;SDS011;62991;50.040;18.400;2022-11-04T17:21:41;39.45;;;14.02;;
74510;SDS011;62991;50.040;18.400;2022-11-04T17:24:44;46.25;;;15.35;;
74510;SDS011;62991;50.040;18.400;2022-11-04T17:27:44;34.17;;;13.40;;
74510;SDS011;62991;50.040;18.400;2022-11-04T17:30:45;60.17;;;24.25;;
74510;SDS011;62991;50.040;18.400;2022-11-04T17:33:46;43.42;;;17.48;;
74510;SDS011;62991;50.040;18.400;2022-11-04T17:36:47;46.03;;;19.65;;
74510;SDS011;62991;50.040;18.400;2022-11-04T17:39:47;53.15;;;22.75;;
74510;SDS011;62991;50.040;18.400;2022-11-04T17:42:48;63.40;;;24.63;;
74510;SDS011;62991;50.040;18.400;2022-11-04T17:46:07;74.45;;;29.13;;
74510;SDS011;62991;50.040;18.400;2022-11-04T17:49:27;56.08;;;20.60;;
74510;SDS011;62991;50.040;18.400;2022-11-04T17:52:28;63.25;;;22.33;;
74510;SDS011;62991;50.040;18.400;2022-11-04T17:55:29;58.95;;;22.63;;
74510;SDS011;62991;50.040;18.400;2022-11-04T17:58:29;50.30;;;21.13;;
74510;SDS011;62991;50.040;18.400;2022-11-04T18:01:30;52.97;;;21.10;;
74510;SDS011;62991;50.040;18.400;2022-11-04T18:04:32;50.65;;;19.95;;
74510;SDS011;62991;50.040;18.400;2022-11-04T18:07:33;54.25;;;20.92;;
74510;SDS011;62991;50.040;18.400;2022-11-04T18:10:34;60.60;;;23.73;;
74510;SDS011;62991;50.040;18.400;2022-11-04T18:13:35;51.17;;;21.65;;
74510;SDS011;62991;50.040;18.400;2022-11-04T18:16:36;43.10;;;19.45;;
74510;SDS011;62991;50.040;18.400;2022-11-04T18:19:37;58.45;;;21.35;;
74510;SDS011;62991;50.040;18.400;2022-11-04T18:22:38;48.85;;;21.55;;
74510;SDS011;62991;50.040;18.400;2022-11-04T18:25:39;54.95;;;21.73;;
74510;SDS011;62991;50.040;18.400;2022-11-04T18:28:42;47.58;;;19.70;;
74510;SDS011;62991;50.040;18.400;2022-11-04T18:31:42;54.47;;;21.92;;
74510;SDS011;62991;50.040;18.400;2022-11-04T18:34:44;47.92;;;20.13;;
74510;SDS011;62991;50.040;18.400;2022-11-04T18:37:46;48.05;;;19.85;;
74510;SDS011;62991;50.040;18.400;2022-11-04T18:40:46;50.67;;;19.95;;
74510;SDS011;62991;50.040;18.400;2022-11-04T18:43:47;48.55;;;21.00;;
74510;SDS011;62991;50.040;18.400;2022-11-04T18:46:48;76.88;;;30.42;;
74510;SDS011;62991;50.040;18.400;2022-11-04T18:49:49;105.15;;;41.17;;
74510;SDS011;62991;50.040;18.400;2022-11-04T18:52:52;95.57;;;35.60;;
74510;SDS011;62991;50.040;18.400;2022-11-04T18:55:59;118.82;;;37.80;;
74510;SDS011;62991;50.040;18.400;2022-11-04T18:59:06;105.97;;;35.20;;
74510;SDS011;62991;50.040;18.400;2022-11-04T19:02:12;59.22;;;22.17;;
74510;SDS011;62991;50.040;18.400;2022-11-04T19:05:18;73.68;;;28.25;;
74510;SDS011;62991;50.040;18.400;2022-11-04T19:08:19;64.30;;;25.98;;
74510;SDS011;62991;50.040;18.400;2022-11-04T19:11:20;74.45;;;27.63;;
74510;SDS011;62991;50.040;18.400;2022-11-04T19:14:26;86.13;;;31.23;;
74510;SDS011;62991;50.040;18.400;2022-11-04T19:17:26;49.33;;;20.33;;
74510;SDS011;62991;50.040;18.400;2022-11-04T19:20:27;58.40;;;23.58;;
74510;SDS011;62991;50.040;18.400;2022-11-04T19:23:29;40.00;;;16.58;;
74510;SDS011;62991;50.040;18.400;2022-11-04T19:26:31;67.88;;;25.15;;
74510;SDS011;62991;50.040;18.400;2022-11-04T19:29:34;60.72;;;21.50;;
74510;SDS011;62991;50.040;18.400;2022-11-04T19:32:35;48.67;;;20.25;;
74510;SDS011;62991;50.040;18.400;2022-11-04T19:35:36;52.08;;;22.00;;
74510;SDS011;62991;50.040;18.400;2022-11-04T19:38:36;42.25;;;17.30;;
74510;SDS011;62991;50.040;18.400;2022-11-04T19:41:37;38.80;;;15.52;;
74510;SDS011;62991;50.040;18.400;2022-11-04T19:44:56;40.92;;;15.63;;
74510;SDS011;62991;50.040;18.400;2022-11-04T19:47:57;38.33;;;15.70;;
74510;SDS011;62991;50.040;18.400;2022-11-04T19:50:58;47.22;;;18.90;;
74510;SDS011;62991;50.040;18.400;2022-11-04T19:53:58;26.35;;;11.13;;
74510;SDS011;62991;50.040;18.400;2022-11-04T19:56:59;36.28;;;14.10;;
74510;SDS011;62991;50.040;18.400;2022-11-04T20:00:00;34.63;;;13.90;;
74510;SDS011;62991;50.040;18.400;2022-11-04T20:03:00;36.88;;;14.80;;
74510;SDS011;62991;50.040;18.400;2022-11-04T20:06:01;31.50;;;13.45;;
74510;SDS011;62991;50.040;18.400;2022-11-04T20:09:04;23.42;;;9.63;;
74510;SDS011;62991;50.040;18.400;2022-11-04T20:12:08;26.05;;;10.93;;
74510;SDS011;62991;50.040;18.400;2022-11-04T20:15:28;32.28;;;12.95;;
74510;SDS011;62991;50.040;18.400;2022-11-04T20:18:29;27.92;;;10.98;;
74510;SDS011;62991;50.040;18.400;2022-11-04T20:21:31;27.08;;;10.93;;
74510;SDS011;62991;50.040;18.400;2022-11-04T20:24:33;28.95;;;11.60;;
74510;SDS011;62991;50.040;18.400;2022-11-04T20:27:34;27.15;;;11.77;;
74510;SDS011;62991;50.040;18.400;2022-11-04T20:30:36;18.15;;;8.10;;
74510;SDS011;62991;50.040;18.400;2022-11-04T20:33:37;19.10;;;8.13;;